sensor_id;sensor_type;location;lat;lon;timestamp;P1;durP1;ratioP1;P2;durP2;ratioP2
908;SDS011;441;51.192;6.788;2023-04-24T00:01:03;7.47;;;7.37;;
908;SDS011;441;51.192;6.788;2023-04-24T00:03:32;7.20;;;7.10;;
908;SDS011;441;51.192;6.788;2023-04-24T00:05:59;7.37;;;7.17;;
908;SDS011;441;51.192;6.788;2023-04-24T00:08:28;7.03;;;6.93;;
908;SDS011;441;51.192;6.788;2023-04-24T00:10:55;7.27;;;7.17;;
908;SDS011;441;51.192;6.788;2023-04-24T00:13:23;7.37;;;7.17;;
908;SDS011;441;51.192;6.788;2023-04-24T00:15:50;7.10;;;7.00;;
908;SDS011;441;51.192;6.788;2023-04-24T00:18:17;7.40;;;7.30;;
908;SDS011;441;51.192;6.788;2023-04-24T00:20:44;7.20;;;7.10;;
908;SDS011;441;51.192;6.788;2023-04-24T00:23:12;7.47;;;7.37;;
908;SDS011;441;51.192;6.788;2023-04-24T00:25:40;7.07;;;6.97;;
908;SDS011;441;51.192;6.788;2023-04-24T00:28:07;7.70;;;7.50;;
908;SDS011;441;51.192;6.788;2023-04-24T00:30:34;7.30;;;7.20;;
908;SDS011;441;51.192;6.788;2023-04-24T00:33:01;7.13;;;7.03;;
908;SDS011;441;51.192;6.788;2023-04-24T00:35:27;7.23;;;7.13;;
908;SDS011;441;51.192;6.788;2023-04-24T00:37:54;7.20;;;7.10;;
908;SDS011;441;51.192;6.788;2023-04-24T00:40:21;7.27;;;7.17;;
908;SDS011;441;51.192;6.788;2023-04-24T00:42:50;7.33;;;7.23;;
908;SDS011;441;51.192;6.788;2023-04-24T00:45:17;7.43;;;7.33;;
908;SDS011;441;51.192;6.788;2023-04-24T00:47:44;8.10;;;8.00;;
908;SDS011;441;51.192;6.788;2023-04-24T00:50:12;7.90;;;7.70;;
908;SDS011;441;51.192;6.788;2023-04-24T00:52:42;7.53;;;7.43;;
908;SDS011;441;51.192;6.788;2023-04-24T00:55:09;8.40;;;8.20;;
908;SDS011;441;51.192;6.788;2023-04-24T00:57:36;7.30;;;7.20;;
908;SDS011;441;51.192;6.788;2023-04-24T01:00:05;7.50;;;7.40;;
908;SDS011;441;51.192;6.788;2023-04-24T01:02:35;7.40;;;7.30;;
908;SDS011;441;51.192;6.788;2023-04-24T01:05:05;7.17;;;7.07;;
908;SDS011;441;51.192;6.788;2023-04-24T01:07:33;7.40;;;7.30;;
908;SDS011;441;51.192;6.788;2023-04-24T01:10:01;7.87;;;7.77;;
908;SDS011;441;51.192;6.788;2023-04-24T01:12:29;7.90;;;7.80;;
908;SDS011;441;51.192;6.788;2023-04-24T01:14:56;7.40;;;7.30;;
908;SDS011;441;51.192;6.788;2023-04-24T01:17:24;7.80;;;7.60;;
908;SDS011;441;51.192;6.788;2023-04-24T01:19:51;7.40;;;7.30;;
908;SDS011;441;51.192;6.788;2023-04-24T01:22:20;7.70;;;7.60;;
908;SDS011;441;51.192;6.788;2023-04-24T01:24:47;7.67;;;7.57;;
908;SDS011;441;51.192;6.788;2023-04-24T01:27:14;7.33;;;7.23;;
908;SDS011;441;51.192;6.788;2023-04-24T01:29:41;7.57;;;7.47;;
908;SDS011;441;51.192;6.788;2023-04-24T01:32:08;7.53;;;7.33;;
908;SDS011;441;51.192;6.788;2023-04-24T01:34:35;7.03;;;6.93;;
908;SDS011;441;51.192;6.788;2023-04-24T01:37:03;7.07;;;6.97;;
908;SDS011;441;51.192;6.788;2023-04-24T01:39:31;7.93;;;7.73;;
908;SDS011;441;51.192;6.788;2023-04-24T01:41:59;7.60;;;7.50;;
908;SDS011;441;51.192;6.788;2023-04-24T01:44:27;7.80;;;7.60;;
908;SDS011;441;51.192;6.788;2023-04-24T01:46:54;7.23;;;6.93;;
908;SDS011;441;51.192;6.788;2023-04-24T01:49:21;8.30;;;8.10;;
908;SDS011;441;51.192;6.788;2023-04-24T01:51:48;7.37;;;7.27;;
908;SDS011;441;51.192;6.788;2023-04-24T01:54:15;7.70;;;7.50;;
908;SDS011;441;51.192;6.788;2023-04-24T01:56:43;7.50;;;7.40;;
908;SDS011;441;51.192;6.788;2023-04-24T01:59:11;7.43;;;7.33;;
908;SDS011;441;51.192;6.788;2023-04-24T02:01:38;7.47;;;7.37;;
908;SDS011;441;51.192;6.788;2023-04-24T02:04:06;7.53;;;7.10;;
908;SDS011;441;51.192;6.788;2023-04-24T02:06:34;7.87;;;7.73;;
908;SDS011;441;51.192;6.788;2023-04-24T02:09:01;7.33;;;7.23;;
908;SDS011;441;51.192;6.788;2023-04-24T02:11:29;7.80;;;7.60;;
908;SDS011;441;51.192;6.788;2023-04-24T02:13:57;8.17;;;7.87;;
908;SDS011;441;51.192;6.788;2023-04-24T02:16:24;8.00;;;7.90;;
908;SDS011;441;51.192;6.788;2023-04-24T02:18:52;7.33;;;7.23;;
908;SDS011;441;51.192;6.788;2023-04-24T02:21:19;8.10;;;8.00;;
908;SDS011;441;51.192;6.788;2023-04-24T02:23:45;7.70;;;7.40;;
908;SDS011;441;51.192;6.788;2023-04-24T02:26:12;7.90;;;7.70;;
908;SDS011;441;51.192;6.788;2023-04-24T02:28:40;7.60;;;7.50;;
908;SDS011;441;51.192;6.788;2023-04-24T02:31:08;7.97;;;7.87;;
908;SDS011;441;51.192;6.788;2023-04-24T02:33:35;7.90;;;7.80;;
908;SDS011;441;51.192;6.788;2023-04-24T02:36:02;8.10;;;7.90;;
908;SDS011;441;51.192;6.788;2023-04-24T02:38:29;7.87;;;7.77;;
908;SDS011;441;51.192;6.788;2023-04-24T02:40:56;7.30;;;7.20;;
908;SDS011;441;51.192;6.788;2023-04-24T02:43:23;8.10;;;7.90;;
908;SDS011;441;51.192;6.788;2023-04-24T02:45:50;8.00;;;7.90;;
908;SDS011;441;51.192;6.788;2023-04-24T02:48:18;8.60;;;8.40;;
908;SDS011;441;51.192;6.788;2023-04-24T02:50:45;8.30;;;8.10;;
908;SDS011;441;51.192;6.788;2023-04-24T02:53:12;8.10;;;7.90;;
908;SDS011;441;51.192;6.788;2023-04-24T02:55:39;7.60;;;7.50;;
908;SDS011;441;51.192;6.788;2023-04-24T02:58:06;7.80;;;7.60;;
908;SDS011;441;51.192;6.788;2023-04-24T03:00:33;8.00;;;7.90;;
908;SDS011;441;51.192;6.788;2023-04-24T03:03:00;7.90;;;7.73;;
908;SDS011;441;51.192;6.788;2023-04-24T03:05:29;7.40;;;7.30;;
908;SDS011;441;51.192;6.788;2023-04-24T03:07:56;8.00;;;7.90;;
908;SDS011;441;51.192;6.788;2023-04-24T03:10:23;8.17;;;7.97;;
908;SDS011;441;51.192;6.788;2023-04-24T03:12:50;7.67;;;7.57;;
908;SDS011;441;51.192;6.788;2023-04-24T03:15:17;7.80;;;7.50;;
908;SDS011;441;51.192;6.788;2023-04-24T03:17:44;8.10;;;7.90;;
908;SDS011;441;51.192;6.788;2023-04-24T03:20:11;8.03;;;7.90;;
908;SDS011;441;51.192;6.788;2023-04-24T03:22:40;8.23;;;8.03;;
908;SDS011;441;51.192;6.788;2023-04-24T03:25:07;8.00;;;7.80;;
908;SDS011;441;51.192;6.788;2023-04-24T03:27:34;8.37;;;8.17;;
908;SDS011;441;51.192;6.788;2023-04-24T03:30:02;7.50;;;7.30;;
908;SDS011;441;51.192;6.788;2023-04-24T03:32:29;7.70;;;7.60;;
908;SDS011;441;51.192;6.788;2023-04-24T03:34:57;7.90;;;7.80;;
908;SDS011;441;51.192;6.788;2023-04-24T03:37:24;8.23;;;8.13;;
908;SDS011;441;51.192;6.788;2023-04-24T03:39:52;8.07;;;7.90;;
908;SDS011;441;51.192;6.788;2023-04-24T03:42:19;8.40;;;8.20;;
908;SDS011;441;51.192;6.788;2023-04-24T03:44:46;7.90;;;7.70;;
908;SDS011;441;51.192;6.788;2023-04-24T03:47:13;8.33;;;8.13;;
908;SDS011;441;51.192;6.788;2023-04-24T03:49:40;7.77;;;7.57;;
908;SDS011;441;51.192;6.788;2023-04-24T03:52:07;7.90;;;7.70;;
908;SDS011;441;51.192;6.788;2023-04-24T03:54:34;8.67;;;8.43;;
908;SDS011;441;51.192;6.788;2023-04-24T03:57:02;7.87;;;7.77;;
908;SDS011;441;51.192;6.788;2023-04-24T03:59:29;7.13;;;7.03;;
908;SDS011;441;51.192;6.788;2023-04-24T04:01:56;8.77;;;8.50;;
908;SDS011;441;51.192;6.788;2023-04-24T04:04:23;7.70;;;7.50;;
908;SDS011;441;51.192;6.788;2023-04-24T04:06:50;7.97;;;7.77;;
908;SDS011;441;51.192;6.788;2023-04-24T04:09:18;8.47;;;8.23;;
908;SDS011;441;51.192;6.788;2023-04-24T04:11:45;8.73;;;8.53;;
908;SDS011;441;51.192;6.788;2023-04-24T04:14:13;8.60;;;8.40;;
908;SDS011;441;51.192;6.788;2023-04-24T04:16:40;8.10;;;7.90;;
908;SDS011;441;51.192;6.788;2023-04-24T04:19:07;8.77;;;8.57;;
908;SDS011;441;51.192;6.788;2023-04-24T04:21:34;7.70;;;7.60;;
908;SDS011;441;51.192;6.788;2023-04-24T04:24:00;8.40;;;8.20;;
908;SDS011;441;51.192;6.788;2023-04-24T04:26:27;8.30;;;8.10;;
908;SDS011;441;51.192;6.788;2023-04-24T04:28:56;8.60;;;8.40;;
908;SDS011;441;51.192;6.788;2023-04-24T04:31:25;8.53;;;8.33;;
908;SDS011;441;51.192;6.788;2023-04-24T04:33:52;8.40;;;8.20;;
908;SDS011;441;51.192;6.788;2023-04-24T04:36:18;8.50;;;8.30;;
908;SDS011;441;51.192;6.788;2023-04-24T04:38:45;9.10;;;8.90;;
908;SDS011;441;51.192;6.788;2023-04-24T04:41:13;8.37;;;8.20;;
908;SDS011;441;51.192;6.788;2023-04-24T04:43:41;9.03;;;8.83;;
908;SDS011;441;51.192;6.788;2023-04-24T04:46:08;9.30;;;9.00;;
908;SDS011;441;51.192;6.788;2023-04-24T04:48:37;8.97;;;8.77;;
908;SDS011;441;51.192;6.788;2023-04-24T04:51:04;9.40;;;9.20;;
908;SDS011;441;51.192;6.788;2023-04-24T04:53:31;8.30;;;8.10;;
908;SDS011;441;51.192;6.788;2023-04-24T04:55:58;9.00;;;8.80;;
908;SDS011;441;51.192;6.788;2023-04-24T04:58:25;9.20;;;9.00;;
908;SDS011;441;51.192;6.788;2023-04-24T05:00:52;8.73;;;8.43;;
908;SDS011;441;51.192;6.788;2023-04-24T05:03:19;9.33;;;8.93;;
908;SDS011;441;51.192;6.788;2023-04-24T05:05:47;8.70;;;8.43;;
908;SDS011;441;51.192;6.788;2023-04-24T05:08:14;8.63;;;8.43;;
908;SDS011;441;51.192;6.788;2023-04-24T05:10:41;8.03;;;7.83;;
908;SDS011;441;51.192;6.788;2023-04-24T05:13:08;9.03;;;8.73;;
908;SDS011;441;51.192;6.788;2023-04-24T05:15:35;10.00;;;9.70;;
908;SDS011;441;51.192;6.788;2023-04-24T05:18:02;9.90;;;9.40;;
908;SDS011;441;51.192;6.788;2023-04-24T05:20:29;9.13;;;8.93;;
908;SDS011;441;51.192;6.788;2023-04-24T05:22:57;10.17;;;9.87;;
908;SDS011;441;51.192;6.788;2023-04-24T05:25:24;8.90;;;8.60;;
908;SDS011;441;51.192;6.788;2023-04-24T05:27:51;9.10;;;8.80;;
908;SDS011;441;51.192;6.788;2023-04-24T05:30:18;9.50;;;9.20;;
908;SDS011;441;51.192;6.788;2023-04-24T05:32:45;9.73;;;9.43;;
908;SDS011;441;51.192;6.788;2023-04-24T05:35:12;9.83;;;9.30;;
908;SDS011;441;51.192;6.788;2023-04-24T05:37:39;9.13;;;8.93;;
908;SDS011;441;51.192;6.788;2023-04-24T05:40:08;8.67;;;8.47;;
908;SDS011;441;51.192;6.788;2023-04-24T05:42:36;10.20;;;9.83;;
908;SDS011;441;51.192;6.788;2023-04-24T05:45:03;9.00;;;8.70;;
908;SDS011;441;51.192;6.788;2023-04-24T05:47:31;9.13;;;8.93;;
908;SDS011;441;51.192;6.788;2023-04-24T05:49:57;8.80;;;8.60;;
908;SDS011;441;51.192;6.788;2023-04-24T05:52:24;10.00;;;9.70;;
908;SDS011;441;51.192;6.788;2023-04-24T05:54:51;8.70;;;8.50;;
908;SDS011;441;51.192;6.788;2023-04-24T05:57:19;9.13;;;8.90;;
908;SDS011;441;51.192;6.788;2023-04-24T05:59:46;9.10;;;8.70;;
908;SDS011;441;51.192;6.788;2023-04-24T06:02:13;8.87;;;8.67;;
908;SDS011;441;51.192;6.788;2023-04-24T06:04:40;9.73;;;9.37;;
908;SDS011;441;51.192;6.788;2023-04-24T06:07:07;9.10;;;8.73;;
908;SDS011;441;51.192;6.788;2023-04-24T06:09:34;9.70;;;9.40;;
908;SDS011;441;51.192;6.788;2023-04-24T06:12:01;8.97;;;8.77;;
908;SDS011;441;51.192;6.788;2023-04-24T06:14:30;8.50;;;8.30;;
908;SDS011;441;51.192;6.788;2023-04-24T06:16:56;8.30;;;8.10;;
908;SDS011;441;51.192;6.788;2023-04-24T06:19:23;8.80;;;8.60;;
908;SDS011;441;51.192;6.788;2023-04-24T06:21:50;8.40;;;8.20;;
908;SDS011;441;51.192;6.788;2023-04-24T06:24:17;8.67;;;8.40;;
908;SDS011;441;51.192;6.788;2023-04-24T06:26:44;8.73;;;8.53;;
908;SDS011;441;51.192;6.788;2023-04-24T06:29:11;9.10;;;8.90;;
908;SDS011;441;51.192;6.788;2023-04-24T06:31:39;9.07;;;8.70;;
908;SDS011;441;51.192;6.788;2023-04-24T06:34:06;8.63;;;8.43;;
908;SDS011;441;51.192;6.788;2023-04-24T06:36:33;8.50;;;8.30;;
908;SDS011;441;51.192;6.788;2023-04-24T06:39:00;8.60;;;8.40;;
908;SDS011;441;51.192;6.788;2023-04-24T06:41:28;9.33;;;8.93;;
908;SDS011;441;51.192;6.788;2023-04-24T06:43:55;8.70;;;8.50;;
908;SDS011;441;51.192;6.788;2023-04-24T06:46:22;9.13;;;8.93;;
908;SDS011;441;51.192;6.788;2023-04-24T06:48:52;7.57;;;7.47;;
908;SDS011;441;51.192;6.788;2023-04-24T06:51:20;8.60;;;8.40;;
908;SDS011;441;51.192;6.788;2023-04-24T06:53:48;8.87;;;8.67;;
908;SDS011;441;51.192;6.788;2023-04-24T06:56:15;8.67;;;8.37;;
908;SDS011;441;51.192;6.788;2023-04-24T06:58:42;8.83;;;8.63;;
908;SDS011;441;51.192;6.788;2023-04-24T07:01:10;8.87;;;8.63;;
908;SDS011;441;51.192;6.788;2023-04-24T07:03:37;8.53;;;8.33;;
908;SDS011;441;51.192;6.788;2023-04-24T07:06:05;8.90;;;8.70;;
908;SDS011;441;51.192;6.788;2023-04-24T07:08:32;8.70;;;8.50;;
908;SDS011;441;51.192;6.788;2023-04-24T07:11:00;8.70;;;8.50;;
908;SDS011;441;51.192;6.788;2023-04-24T07:13:28;8.60;;;8.40;;
908;SDS011;441;51.192;6.788;2023-04-24T07:15:55;9.30;;;9.00;;
908;SDS011;441;51.192;6.788;2023-04-24T07:18:22;8.90;;;8.60;;
908;SDS011;441;51.192;6.788;2023-04-24T07:20:49;8.70;;;8.50;;
908;SDS011;441;51.192;6.788;2023-04-24T07:23:17;8.27;;;8.07;;
908;SDS011;441;51.192;6.788;2023-04-24T07:25:44;8.80;;;8.60;;
908;SDS011;441;51.192;6.788;2023-04-24T07:28:11;8.10;;;8.00;;
908;SDS011;441;51.192;6.788;2023-04-24T07:30:39;9.73;;;9.43;;
908;SDS011;441;51.192;6.788;2023-04-24T07:33:05;9.30;;;9.00;;
908;SDS011;441;51.192;6.788;2023-04-24T07:35:32;8.50;;;8.30;;
908;SDS011;441;51.192;6.788;2023-04-24T07:38:00;8.10;;;7.90;;
908;SDS011;441;51.192;6.788;2023-04-24T07:40:28;8.00;;;7.90;;
908;SDS011;441;51.192;6.788;2023-04-24T07:42:55;8.77;;;8.57;;
908;SDS011;441;51.192;6.788;2023-04-24T07:45:22;8.70;;;8.50;;
908;SDS011;441;51.192;6.788;2023-04-24T07:47:51;8.90;;;8.70;;
908;SDS011;441;51.192;6.788;2023-04-24T07:50:18;9.27;;;9.07;;
908;SDS011;441;51.192;6.788;2023-04-24T07:52:45;9.17;;;8.97;;
908;SDS011;441;51.192;6.788;2023-04-24T07:55:12;8.77;;;8.57;;
908;SDS011;441;51.192;6.788;2023-04-24T07:57:40;9.00;;;8.80;;
908;SDS011;441;51.192;6.788;2023-04-24T08:00:08;8.83;;;8.63;;
908;SDS011;441;51.192;6.788;2023-04-24T08:02:35;9.07;;;8.87;;
908;SDS011;441;51.192;6.788;2023-04-24T08:05:02;9.40;;;9.20;;
908;SDS011;441;51.192;6.788;2023-04-24T08:07:29;9.60;;;9.30;;
908;SDS011;441;51.192;6.788;2023-04-24T08:09:57;9.37;;;9.17;;
908;SDS011;441;51.192;6.788;2023-04-24T08:12:24;8.80;;;8.60;;
908;SDS011;441;51.192;6.788;2023-04-24T08:14:52;8.50;;;8.30;;
908;SDS011;441;51.192;6.788;2023-04-24T08:17:19;8.67;;;8.47;;
908;SDS011;441;51.192;6.788;2023-04-24T08:19:46;8.67;;;8.47;;
908;SDS011;441;51.192;6.788;2023-04-24T08:22:13;9.60;;;9.40;;
908;SDS011;441;51.192;6.788;2023-04-24T08:24:40;9.33;;;9.13;;
908;SDS011;441;51.192;6.788;2023-04-24T08:27:07;8.83;;;8.67;;
908;SDS011;441;51.192;6.788;2023-04-24T08:29:35;9.23;;;9.03;;
908;SDS011;441;51.192;6.788;2023-04-24T08:32:03;8.70;;;8.50;;
908;SDS011;441;51.192;6.788;2023-04-24T08:34:30;9.30;;;9.10;;
908;SDS011;441;51.192;6.788;2023-04-24T08:36:57;9.20;;;9.00;;
908;SDS011;441;51.192;6.788;2023-04-24T08:39:24;9.50;;;9.30;;
908;SDS011;441;51.192;6.788;2023-04-24T08:41:51;9.17;;;8.97;;
908;SDS011;441;51.192;6.788;2023-04-24T08:44:19;9.33;;;9.13;;
908;SDS011;441;51.192;6.788;2023-04-24T08:46:46;8.73;;;8.53;;
908;SDS011;441;51.192;6.788;2023-04-24T08:49:17;9.70;;;9.40;;
908;SDS011;441;51.192;6.788;2023-04-24T08:51:45;9.40;;;9.10;;
908;SDS011;441;51.192;6.788;2023-04-24T08:54:13;9.43;;;9.23;;
908;SDS011;441;51.192;6.788;2023-04-24T08:56:40;9.30;;;9.10;;
908;SDS011;441;51.192;6.788;2023-04-24T08:59:09;8.73;;;8.53;;
908;SDS011;441;51.192;6.788;2023-04-24T09:01:37;8.97;;;8.77;;
908;SDS011;441;51.192;6.788;2023-04-24T09:04:05;8.97;;;8.77;;
908;SDS011;441;51.192;6.788;2023-04-24T09:06:36;8.80;;;8.60;;
908;SDS011;441;51.192;6.788;2023-04-24T09:09:03;9.10;;;8.90;;
908;SDS011;441;51.192;6.788;2023-04-24T09:11:30;8.63;;;8.43;;
908;SDS011;441;51.192;6.788;2023-04-24T09:13:58;8.97;;;8.77;;
908;SDS011;441;51.192;6.788;2023-04-24T09:16:25;8.90;;;8.70;;
908;SDS011;441;51.192;6.788;2023-04-24T09:18:53;9.00;;;8.80;;
908;SDS011;441;51.192;6.788;2023-04-24T09:21:21;9.07;;;8.87;;
908;SDS011;441;51.192;6.788;2023-04-24T09:23:58;9.33;;;9.13;;
908;SDS011;441;51.192;6.788;2023-04-24T09:26:25;9.77;;;9.57;;
908;SDS011;441;51.192;6.788;2023-04-24T09:28:56;9.20;;;9.00;;
908;SDS011;441;51.192;6.788;2023-04-24T09:31:23;9.00;;;8.80;;
908;SDS011;441;51.192;6.788;2023-04-24T09:33:56;9.20;;;9.00;;
908;SDS011;441;51.192;6.788;2023-04-24T09:36:27;8.77;;;8.57;;
908;SDS011;441;51.192;6.788;2023-04-24T09:38:58;8.90;;;8.70;;
908;SDS011;441;51.192;6.788;2023-04-24T09:41:26;9.20;;;9.00;;
908;SDS011;441;51.192;6.788;2023-04-24T09:43:54;9.00;;;8.80;;
908;SDS011;441;51.192;6.788;2023-04-24T09:46:29;9.33;;;9.13;;
908;SDS011;441;51.192;6.788;2023-04-24T09:48:57;8.67;;;8.47;;
908;SDS011;441;51.192;6.788;2023-04-24T09:51:34;9.40;;;9.20;;
908;SDS011;441;51.192;6.788;2023-04-24T09:54:04;9.17;;;8.97;;
908;SDS011;441;51.192;6.788;2023-04-24T09:56:41;9.53;;;9.33;;
908;SDS011;441;51.192;6.788;2023-04-24T09:59:10;9.30;;;9.10;;
908;SDS011;441;51.192;6.788;2023-04-24T10:01:37;9.17;;;8.97;;
908;SDS011;441;51.192;6.788;2023-04-24T10:04:10;9.00;;;8.80;;
908;SDS011;441;51.192;6.788;2023-04-24T10:06:42;9.37;;;9.17;;
908;SDS011;441;51.192;6.788;2023-04-24T10:09:10;8.90;;;8.70;;
908;SDS011;441;51.192;6.788;2023-04-24T10:11:39;9.10;;;8.90;;
908;SDS011;441;51.192;6.788;2023-04-24T10:14:09;8.90;;;8.70;;
908;SDS011;441;51.192;6.788;2023-04-24T10:16:37;8.80;;;8.60;;
908;SDS011;441;51.192;6.788;2023-04-24T10:19:05;8.90;;;8.70;;
908;SDS011;441;51.192;6.788;2023-04-24T10:21:32;9.10;;;8.90;;
908;SDS011;441;51.192;6.788;2023-04-24T10:24:01;9.00;;;8.80;;
908;SDS011;441;51.192;6.788;2023-04-24T10:26:31;8.73;;;8.53;;
908;SDS011;441;51.192;6.788;2023-04-24T10:28:58;8.90;;;8.70;;
908;SDS011;441;51.192;6.788;2023-04-24T10:31:25;9.10;;;8.90;;
908;SDS011;441;51.192;6.788;2023-04-24T10:33:53;9.07;;;8.87;;
908;SDS011;441;51.192;6.788;2023-04-24T10:36:21;9.40;;;9.20;;
908;SDS011;441;51.192;6.788;2023-04-24T10:38:51;9.23;;;9.03;;
908;SDS011;441;51.192;6.788;2023-04-24T10:41:20;9.40;;;9.20;;
908;SDS011;441;51.192;6.788;2023-04-24T10:43:59;9.20;;;9.00;;
908;SDS011;441;51.192;6.788;2023-04-24T10:46:30;8.87;;;8.67;;
908;SDS011;441;51.192;6.788;2023-04-24T10:48:58;9.17;;;8.97;;
908;SDS011;441;51.192;6.788;2023-04-24T10:51:43;8.50;;;8.30;;
908;SDS011;441;51.192;6.788;2023-04-24T10:54:25;9.60;;;9.40;;
908;SDS011;441;51.192;6.788;2023-04-24T10:56:52;9.33;;;9.13;;
908;SDS011;441;51.192;6.788;2023-04-24T10:59:34;9.50;;;9.30;;
908;SDS011;441;51.192;6.788;2023-04-24T11:02:02;8.90;;;8.70;;
908;SDS011;441;51.192;6.788;2023-04-24T11:04:29;9.43;;;9.13;;
908;SDS011;441;51.192;6.788;2023-04-24T11:06:57;9.50;;;9.30;;
908;SDS011;441;51.192;6.788;2023-04-24T11:09:26;9.30;;;9.10;;
908;SDS011;441;51.192;6.788;2023-04-24T11:12:02;9.20;;;9.00;;
908;SDS011;441;51.192;6.788;2023-04-24T11:14:38;8.97;;;8.77;;
908;SDS011;441;51.192;6.788;2023-04-24T11:17:28;9.50;;;9.20;;
908;SDS011;441;51.192;6.788;2023-04-24T11:20:00;9.13;;;8.93;;
908;SDS011;441;51.192;6.788;2023-04-24T11:22:28;9.10;;;8.90;;
908;SDS011;441;51.192;6.788;2023-04-24T11:24:59;9.77;;;9.47;;
908;SDS011;441;51.192;6.788;2023-04-24T11:27:29;9.50;;;9.30;;
908;SDS011;441;51.192;6.788;2023-04-24T11:30:02;9.00;;;8.80;;
908;SDS011;441;51.192;6.788;2023-04-24T11:32:30;8.70;;;8.50;;
908;SDS011;441;51.192;6.788;2023-04-24T11:35:01;8.83;;;8.63;;
908;SDS011;441;51.192;6.788;2023-04-24T11:37:33;9.10;;;8.80;;
908;SDS011;441;51.192;6.788;2023-04-24T11:40:01;9.53;;;9.33;;
908;SDS011;441;51.192;6.788;2023-04-24T11:42:29;9.60;;;9.40;;
908;SDS011;441;51.192;6.788;2023-04-24T11:45:01;8.47;;;8.27;;
908;SDS011;441;51.192;6.788;2023-04-24T11:47:34;8.80;;;8.60;;
908;SDS011;441;51.192;6.788;2023-04-24T11:50:01;9.60;;;9.40;;
908;SDS011;441;51.192;6.788;2023-04-24T11:52:29;9.10;;;8.90;;
908;SDS011;441;51.192;6.788;2023-04-24T11:54:57;9.33;;;9.13;;
908;SDS011;441;51.192;6.788;2023-04-24T11:57:24;9.00;;;8.80;;
908;SDS011;441;51.192;6.788;2023-04-24T11:59:53;9.50;;;9.30;;
908;SDS011;441;51.192;6.788;2023-04-24T12:02:22;8.87;;;8.67;;
908;SDS011;441;51.192;6.788;2023-04-24T12:04:50;8.30;;;8.10;;
908;SDS011;441;51.192;6.788;2023-04-24T12:07:17;9.43;;;9.23;;
908;SDS011;441;51.192;6.788;2023-04-24T12:09:44;8.80;;;8.60;;
908;SDS011;441;51.192;6.788;2023-04-24T12:12:12;8.97;;;8.77;;
908;SDS011;441;51.192;6.788;2023-04-24T12:14:44;9.10;;;8.90;;
908;SDS011;441;51.192;6.788;2023-04-24T12:17:15;9.23;;;9.03;;
908;SDS011;441;51.192;6.788;2023-04-24T12:19:46;9.60;;;9.33;;
908;SDS011;441;51.192;6.788;2023-04-24T12:22:15;9.63;;;9.43;;
908;SDS011;441;51.192;6.788;2023-04-24T12:24:55;9.83;;;9.53;;
908;SDS011;441;51.192;6.788;2023-04-24T12:27:28;9.83;;;9.63;;
908;SDS011;441;51.192;6.788;2023-04-24T12:29:56;8.90;;;8.70;;
908;SDS011;441;51.192;6.788;2023-04-24T12:32:24;9.10;;;8.90;;
908;SDS011;441;51.192;6.788;2023-04-24T12:34:53;9.03;;;8.83;;
908;SDS011;441;51.192;6.788;2023-04-24T12:37:21;8.93;;;8.73;;
908;SDS011;441;51.192;6.788;2023-04-24T12:39:59;9.10;;;8.90;;
908;SDS011;441;51.192;6.788;2023-04-24T12:42:30;9.80;;;9.50;;
908;SDS011;441;51.192;6.788;2023-04-24T12:44:57;9.10;;;8.90;;
908;SDS011;441;51.192;6.788;2023-04-24T12:47:25;10.13;;;9.77;;
908;SDS011;441;51.192;6.788;2023-04-24T12:49:54;9.57;;;9.27;;
908;SDS011;441;51.192;6.788;2023-04-24T12:52:21;9.47;;;9.27;;
908;SDS011;441;51.192;6.788;2023-04-24T12:54:48;9.33;;;9.13;;
908;SDS011;441;51.192;6.788;2023-04-24T12:57:16;9.80;;;9.60;;
908;SDS011;441;51.192;6.788;2023-04-24T12:59:43;9.63;;;9.43;;
908;SDS011;441;51.192;6.788;2023-04-24T13:02:10;9.10;;;8.90;;
908;SDS011;441;51.192;6.788;2023-04-24T13:04:37;9.67;;;9.47;;
908;SDS011;441;51.192;6.788;2023-04-24T13:07:05;9.70;;;9.50;;
908;SDS011;441;51.192;6.788;2023-04-24T13:09:33;9.30;;;9.10;;
908;SDS011;441;51.192;6.788;2023-04-24T13:12:00;9.50;;;9.30;;
908;SDS011;441;51.192;6.788;2023-04-24T13:14:27;9.90;;;9.70;;
908;SDS011;441;51.192;6.788;2023-04-24T13:16:54;9.70;;;9.50;;
908;SDS011;441;51.192;6.788;2023-04-24T13:19:21;9.73;;;9.53;;
908;SDS011;441;51.192;6.788;2023-04-24T13:21:50;9.83;;;9.53;;
908;SDS011;441;51.192;6.788;2023-04-24T13:24:18;9.63;;;9.43;;
908;SDS011;441;51.192;6.788;2023-04-24T13:26:45;9.87;;;9.57;;
908;SDS011;441;51.192;6.788;2023-04-24T13:29:12;9.53;;;9.23;;
908;SDS011;441;51.192;6.788;2023-04-24T13:31:39;9.40;;;9.20;;
908;SDS011;441;51.192;6.788;2023-04-24T13:34:06;9.47;;;9.27;;
908;SDS011;441;51.192;6.788;2023-04-24T13:36:33;9.60;;;9.40;;
908;SDS011;441;51.192;6.788;2023-04-24T13:39:00;9.50;;;9.20;;
908;SDS011;441;51.192;6.788;2023-04-24T13:41:29;10.07;;;9.80;;
908;SDS011;441;51.192;6.788;2023-04-24T13:43:56;9.70;;;9.50;;
908;SDS011;441;51.192;6.788;2023-04-24T13:46:23;9.97;;;9.77;;
908;SDS011;441;51.192;6.788;2023-04-24T13:48:50;9.57;;;9.37;;
908;SDS011;441;51.192;6.788;2023-04-24T13:51:17;9.50;;;9.30;;
908;SDS011;441;51.192;6.788;2023-04-24T13:53:44;9.90;;;9.60;;
908;SDS011;441;51.192;6.788;2023-04-24T13:56:11;10.45;;;9.85;;
908;SDS011;441;51.192;6.788;2023-04-24T13:58:40;8.25;;;7.95;;
908;SDS011;441;51.192;6.788;2023-04-24T14:01:07;9.73;;;9.53;;
908;SDS011;441;51.192;6.788;2023-04-24T14:03:34;9.80;;;9.60;;
908;SDS011;441;51.192;6.788;2023-04-24T14:06:03;9.05;;;8.85;;
908;SDS011;441;51.192;6.788;2023-04-24T14:08:31;10.07;;;9.87;;
908;SDS011;441;51.192;6.788;2023-04-24T14:10:58;10.30;;;10.00;;
908;SDS011;441;51.192;6.788;2023-04-24T14:13:25;10.47;;;10.17;;
908;SDS011;441;51.192;6.788;2023-04-24T14:15:54;9.70;;;9.50;;
908;SDS011;441;51.192;6.788;2023-04-24T14:18:21;10.30;;;10.00;;
908;SDS011;441;51.192;6.788;2023-04-24T14:20:47;11.40;;;11.00;;
908;SDS011;441;51.192;6.788;2023-04-24T14:23:15;10.37;;;10.10;;
908;SDS011;441;51.192;6.788;2023-04-24T14:25:42;10.20;;;10.00;;
908;SDS011;441;51.192;6.788;2023-04-24T14:28:09;10.90;;;10.60;;
908;SDS011;441;51.192;6.788;2023-04-24T14:30:36;10.20;;;10.00;;
908;SDS011;441;51.192;6.788;2023-04-24T14:33:07;10.53;;;10.23;;
908;SDS011;441;51.192;6.788;2023-04-24T14:35:33;10.10;;;9.90;;
908;SDS011;441;51.192;6.788;2023-04-24T14:38:00;11.10;;;10.80;;
908;SDS011;441;51.192;6.788;2023-04-24T14:40:27;10.77;;;10.47;;
908;SDS011;441;51.192;6.788;2023-04-24T14:42:54;10.67;;;10.37;;
908;SDS011;441;51.192;6.788;2023-04-24T14:45:22;11.10;;;10.80;;
908;SDS011;441;51.192;6.788;2023-04-24T14:47:49;10.37;;;10.17;;
908;SDS011;441;51.192;6.788;2023-04-24T14:50:18;9.48;;;9.07;;
908;SDS011;441;51.192;6.788;2023-04-24T14:52:45;11.20;;;10.90;;
908;SDS011;441;51.192;6.788;2023-04-24T14:55:12;10.80;;;10.50;;
908;SDS011;441;51.192;6.788;2023-04-24T14:57:40;11.23;;;10.80;;
908;SDS011;441;51.192;6.788;2023-04-24T15:00:07;10.53;;;10.23;;
908;SDS011;441;51.192;6.788;2023-04-24T15:02:35;10.83;;;10.53;;
908;SDS011;441;51.192;6.788;2023-04-24T15:05:05;10.30;;;10.10;;
908;SDS011;441;51.192;6.788;2023-04-24T15:07:34;11.00;;;10.70;;
908;SDS011;441;51.192;6.788;2023-04-24T15:10:02;11.07;;;10.77;;
908;SDS011;441;51.192;6.788;2023-04-24T15:12:29;10.60;;;10.40;;
908;SDS011;441;51.192;6.788;2023-04-24T15:14:57;11.27;;;10.77;;
908;SDS011;441;51.192;6.788;2023-04-24T15:17:24;11.00;;;10.70;;
908;SDS011;441;51.192;6.788;2023-04-24T15:19:51;10.70;;;10.40;;
908;SDS011;441;51.192;6.788;2023-04-24T15:22:18;11.37;;;11.00;;
908;SDS011;441;51.192;6.788;2023-04-24T15:24:46;11.83;;;11.43;;
908;SDS011;441;51.192;6.788;2023-04-24T15:27:13;11.17;;;10.87;;
908;SDS011;441;51.192;6.788;2023-04-24T15:29:41;10.50;;;10.30;;
908;SDS011;441;51.192;6.788;2023-04-24T15:32:08;10.80;;;10.53;;
908;SDS011;441;51.192;6.788;2023-04-24T15:34:35;10.40;;;10.10;;
908;SDS011;441;51.192;6.788;2023-04-24T15:37:01;10.70;;;10.30;;
908;SDS011;441;51.192;6.788;2023-04-24T15:39:28;9.63;;;9.43;;
908;SDS011;441;51.192;6.788;2023-04-24T15:41:57;9.70;;;9.50;;
908;SDS011;441;51.192;6.788;2023-04-24T15:44:23;10.53;;;10.10;;
908;SDS011;441;51.192;6.788;2023-04-24T15:46:50;10.57;;;10.37;;